Time;durP1;ratioP1;P1;durP2;ratioP2;P2;SDS_P1;SDS_P2;PMS_P1;PMS_P2;Temp;Humidity;BMP_temperature;BMP_pressure;BME280_temperature;BME280_humidity;BME280_pressure;Samples;Min_cycle;Max_cycle;Signal;HPM_P1;HPM_P2
2021/03/18 00:00:40;;;;;;;15.85;10.75;;;5.70;81.70;;;;;;5068258;28;20032;-74
2021/03/18 00:03:06;;;;;;;18.67;12.20;;;5.70;82.10;;;;;;5068335;28;20029;-72
2021/03/18 00:05:32;;;;;;;18.42;12.10;;;5.70;82.10;;;;;;5068209;28;20029;-70
2021/03/18 00:07:59;;;;;;;18.85;12.02;;;5.70;81.80;;;;;;5052917;28;20089;-75
2021/03/18 00:10:25;;;;;;;19.33;12.23;;;5.70;82.10;;;;;;5052822;28;20052;-73
2021/03/18 00:12:51;;;;;;;21.17;12.20;;;5.70;81.80;;;;;;5068165;28;20401;-68
2021/03/18 00:15:19;;;;;;;17.55;11.80;;;5.70;83.00;;;;;;5052474;28;20064;-73
2021/03/18 00:17:44;;;;;;;20.75;11.68;;;5.60;82.90;;;;;;5052545;28;20025;-68
2021/03/18 00:20:12;;;;;;;21.40;12.50;;;5.60;83.90;;;;;;5068154;28;20048;-71
2021/03/18 00:22:40;;;;;;;22.52;12.40;;;5.60;84.20;;;;;;5051332;28;20029;-71
2021/03/18 00:25:09;;;;;;;18.52;11.55;;;5.60;83.50;;;;;;5052669;28;20052;-70
2021/03/18 00:27:35;;;;;;;22.83;11.90;;;5.50;84.50;;;;;;5052695;28;20079;-73
2021/03/18 00:30:02;;;;;;;20.73;11.98;;;5.60;85.00;;;;;;5052682;28;20495;-74
2021/03/18 00:32:28;;;;;;;20.88;13.30;;;5.50;85.30;;;;;;5067737;28;20390;-73
2021/03/18 00:34:53;;;;;;;20.48;12.13;;;5.50;87.00;;;;;;5052589;28;20032;-70
2021/03/18 00:37:19;;;;;;;19.30;11.48;;;5.40;85.70;;;;;;5052942;28;20062;-73
2021/03/18 00:39:45;;;;;;;16.15;11.45;;;5.50;87.10;;;;;;5052842;28;20021;-73
2021/03/18 00:42:11;;;;;;;20.85;13.10;;;5.40;87.50;;;;;;5052508;28;20025;-72
2021/03/18 00:44:38;;;;;;;21.65;13.63;;;5.30;90.00;;;;;;5051075;28;20032;-73
2021/03/18 00:47:04;;;;;;;21.83;13.57;;;5.30;90.70;;;;;;5067897;28;20025;-70
2021/03/18 00:49:30;;;;;;;20.30;13.13;;;5.20;90.90;;;;;;5055172;28;20021;-70
2021/03/18 00:51:56;;;;;;;22.88;14.75;;;5.00;91.00;;;;;;5056469;28;20029;-72
2021/03/18 00:54:22;;;;;;;21.73;13.65;;;4.90;91.40;;;;;;5071520;28;20029;-73
2021/03/18 00:56:48;;;;;;;22.67;14.32;;;4.90;91.20;;;;;;5056134;28;20104;-72
2021/03/18 00:59:14;;;;;;;24.67;13.48;;;4.90;91.70;;;;;;5071470;28;20119;-74
2021/03/18 01:01:40;;;;;;;25.90;14.75;;;4.90;91.10;;;;;;5071512;28;20060;-74
2021/03/18 01:04:05;;;;;;;24.30;14.65;;;4.90;91.80;;;;;;5054573;28;20024;-71
2021/03/18 01:06:32;;;;;;;26.38;16.27;;;4.90;91.80;;;;;;5056007;28;20025;-72
2021/03/18 01:08:59;;;;;;;28.85;16.38;;;4.90;92.10;;;;;;5071265;28;20401;-73
2021/03/18 01:11:30;;;;;;;30.85;18.20;;;4.80;91.90;;;;;;5071184;28;20469;-72
2021/03/18 01:13:59;;;;;;;30.70;17.02;;;4.80;92.00;;;;;;5071158;28;20465;-71
2021/03/18 01:16:28;;;;;;;28.90;16.75;;;4.80;92.30;;;;;;5055806;28;20029;-69
2021/03/18 01:18:59;;;;;;;28.65;17.00;;;4.80;92.30;;;;;;5055684;28;20485;-73
2021/03/18 01:21:33;;;;;;;29.95;15.20;;;4.80;92.20;;;;;;5071013;28;20465;-71
2021/03/18 01:24:00;;;;;;;28.10;17.60;;;4.80;92.00;;;;;;5055588;28;20112;-71
2021/03/18 01:26:26;;;;;;;28.17;17.35;;;4.70;92.40;;;;;;5055543;28;20036;-70
2021/03/18 01:28:52;;;;;;;32.00;17.17;;;4.70;92.70;;;;;;5070825;28;20373;-69
2021/03/18 01:31:18;;;;;;;33.42;18.48;;;4.70;92.70;;;;;;5055490;28;20063;-73
2021/03/18 01:33:45;;;;;;;27.23;15.35;;;4.70;93.00;;;;;;5070624;28;20049;-66
2021/03/18 01:36:13;;;;;;;26.25;14.88;;;4.60;92.00;;;;;;5055390;28;20025;-71
2021/03/18 01:38:41;;;;;;;29.70;15.77;;;4.60;92.60;;;;;;5070809;28;20033;-70
2021/03/18 01:41:07;;;;;;;27.92;16.73;;;4.60;92.50;;;;;;5070729;28;20142;-69
2021/03/18 01:43:33;;;;;;;26.58;15.88;;;4.60;92.70;;;;;;5070252;28;20197;-69
2021/03/18 01:45:59;;;;;;;25.88;15.55;;;4.50;92.50;;;;;;5055172;28;20033;-71
2021/03/18 01:48:26;;;;;;;29.90;15.68;;;4.50;92.70;;;;;;5053916;28;20055;-75
2021/03/18 01:50:53;;;;;;;27.85;15.55;;;4.50;92.90;;;;;;5053792;28;20120;-69
2021/03/18 01:53:21;;;;;;;25.52;15.32;;;4.60;93.10;;;;;;5055097;28;20029;-71
2021/03/18 01:55:49;;;;;;;28.02;15.48;;;4.50;93.00;;;;;;5070373;28;20493;-71
2021/03/18 01:58:16;;;;;;;27.60;16.48;;;4.50;93.40;;;;;;5070317;28;20071;-71
2021/03/18 02:00:44;;;;;;;24.33;15.25;;;4.50;93.50;;;;;;5069519;28;20025;-72
2021/03/18 02:03:11;;;;;;;24.35;14.30;;;4.50;93.40;;;;;;5054842;28;20116;-69
2021/03/18 02:05:37;;;;;;;24.67;15.15;;;4.50;93.50;;;;;;5070217;28;20092;-74
2021/03/18 02:08:04;;;;;;;28.00;17.10;;;4.50;94.20;;;;;;5070169;28;20477;-70
2021/03/18 02:10:34;;;;;;;26.98;16.52;;;4.40;94.40;;;;;;5070090;28;20059;-71
2021/03/18 02:13:01;;;;;;;24.50;15.57;;;4.40;94.20;;;;;;5070043;28;20090;-72
2021/03/18 02:15:52;;;;;;;29.80;16.50;;;4.40;94.40;;;;;;5054966;28;20113;-74
2021/03/18 02:18:27;;;;;;;29.45;16.58;;;4.40;94.80;;;;;;5054647;28;20021;-70
2021/03/18 02:21:18;;;;;;;30.10;16.67;;;4.30;94.90;;;;;;5069879;28;20094;-71
2021/03/18 02:24:04;;;;;;;30.73;17.05;;;4.20;95.00;;;;;;5054427;28;20116;-69
2021/03/18 02:26:57;;;;;;;31.67;17.80;;;4.20;95.40;;;;;;5054493;28;20032;-73
2021/03/18 02:30:01;;;;;;;32.92;17.25;;;4.10;96.00;;;;;;5053112;28;20106;-73
2021/03/18 02:33:15;;;;;;;29.55;16.73;;;4.00;95.50;;;;;;5011932;28;20580;-74
2021/03/18 02:35:48;;;;;;;33.42;17.25;;;3.90;95.70;;;;;;4960470;28;20035;-72
2021/03/18 02:38:28;;;;;;;29.77;16.17;;;3.90;96.40;;;;;;5047191;28;20045;-71
2021/03/18 02:41:03;;;;;;;34.70;17.50;;;3.80;96.90;;;;;;5053866;28;20037;-73
2021/03/18 02:43:33;;;;;;;31.23;17.77;;;3.80;96.70;;;;;;5069438;28;20032;-73
2021/03/18 02:46:02;;;;;;;34.35;18.15;;;3.80;96.80;;;;;;5069378;28;20029;-70
2021/03/18 02:48:34;;;;;;;27.33;17.00;;;3.70;97.00;;;;;;5054087;28;20056;-68
2021/03/18 02:51:01;;;;;;;29.13;17.65;;;3.60;96.80;;;;;;5053650;28;20029;-70
2021/03/18 02:53:31;;;;;;;32.33;17.37;;;3.40;97.30;;;;;;5052578;28;20025;-72
2021/03/18 02:56:00;;;;;;;34.80;18.40;;;3.30;97.60;;;;;;5054123;28;20401;-69
2021/03/18 02:58:31;;;;;;;37.07;18.93;;;3.30;98.00;;;;;;5069456;28;20369;-69
2021/03/18 03:00:59;;;;;;;40.27;19.97;;;3.30;98.30;;;;;;5053899;28;20458;-66
2021/03/18 03:03:25;;;;;;;35.13;20.10;;;3.30;98.40;;;;;;5053674;28;20285;-71
2021/03/18 03:05:54;;;;;;;37.33;21.25;;;3.30;98.50;;;;;;5053402;28;20394;-71
2021/03/18 03:08:24;;;;;;;37.33;21.13;;;3.30;99.10;;;;;;5069053;28;20496;-72
2021/03/18 03:10:54;;;;;;;37.70;22.27;;;3.30;99.30;;;;;;5053514;28;20029;-70
2021/03/18 03:13:22;;;;;;;40.47;22.20;;;3.30;99.10;;;;;;5053874;28;20469;-71
2021/03/18 03:15:49;;;;;;;41.57;21.87;;;3.30;99.40;;;;;;5053522;28;20473;-72
2021/03/18 03:18:16;;;;;;;37.33;20.35;;;3.40;99.30;;;;;;5053568;28;20025;-72
2021/03/18 03:20:43;;;;;;;38.30;20.53;;;3.40;99.10;;;;;;5052136;28;20123;-74
2021/03/18 03:23:11;;;;;;;39.57;21.20;;;3.60;98.90;;;;;;5068616;28;20029;-74
2021/03/18 03:25:39;;;;;;;37.53;22.03;;;3.60;99.00;;;;;;5053079;28;20028;-74
2021/03/18 03:28:10;;;;;;;35.73;19.70;;;3.60;98.70;;;;;;5068742;28;20039;-71
2021/03/18 03:30:37;;;;;;;43.17;21.20;;;3.50;98.50;;;;;;5053367;28;20548;-73
2021/03/18 03:33:05;;;;;;;44.80;21.93;;;3.50;99.20;;;;;;5053213;28;20049;-73
2021/03/18 03:35:32;;;;;;;41.87;21.63;;;3.50;99.20;;;;;;5068614;28;20064;-73
2021/03/18 03:37:58;;;;;;;39.83;21.20;;;3.50;99.00;;;;;;5051913;28;20059;-73
2021/03/18 03:40:24;;;;;;;36.40;21.33;;;3.50;99.00;;;;;;5053178;28;20025;-74
2021/03/18 03:42:50;;;;;;;37.90;21.10;;;3.50;99.10;;;;;;5051735;28;20110;-71
2021/03/18 03:45:16;;;;;;;36.07;20.47;;;3.50;99.30;;;;;;5053137;28;20469;-73
2021/03/18 03:47:43;;;;;;;36.20;20.37;;;3.40;99.10;;;;;;5053157;28;20036;-71
2021/03/18 03:50:19;;;;;;;38.77;20.70;;;3.30;98.90;;;;;;5051720;28;20025;-74
2021/03/18 03:53:21;;;;;;;38.30;20.60;;;3.20;99.20;;;;;;5068430;28;20025;-73
2021/03/18 03:56:04;;;;;;;41.07;21.13;;;3.30;99.50;;;;;;5053294;28;20389;-70
2021/03/18 03:58:41;;;;;;;40.67;22.07;;;3.10;99.00;;;;;;5053026;28;20025;-72
2021/03/18 04:01:25;;;;;;;42.93;22.60;;;3.10;99.60;;;;;;5052993;28;20029;-74
2021/03/18 04:03:54;;;;;;;44.27;23.20;;;3.20;99.80;;;;;;5052875;28;20025;-73
2021/03/18 04:06:21;;;;;;;43.27;23.80;;;3.20;99.70;;;;;;5052911;28;20031;-73
2021/03/18 04:08:47;;;;;;;40.33;22.37;;;3.20;99.80;;;;;;5068259;28;20025;-74
2021/03/18 04:11:14;;;;;;;43.20;24.20;;;3.10;99.90;;;;;;5052551;28;20031;-72
2021/03/18 04:13:41;;;;;;;40.67;22.77;;;3.10;99.90;;;;;;5052790;28;20036;-74
2021/03/18 04:16:08;;;;;;;41.73;21.27;;;3.10;99.90;;;;;;5052787;28;20029;-73
2021/03/18 04:18:38;;;;;;;38.87;21.83;;;3.20;99.90;;;;;;5053101;28;20045;-74
2021/03/18 04:21:07;;;;;;;42.07;22.83;;;3.20;99.80;;;;;;5052454;28;20560;-74
2021/03/18 04:23:33;;;;;;;44.97;23.03;;;3.20;99.90;;;;;;5069310;28;20083;-72
2021/03/18 04:26:00;;;;;;;43.40;23.47;;;3.20;99.90;;;;;;5056376;28;20397;-73
2021/03/18 04:28:29;;;;;;;46.47;24.90;;;3.10;99.90;;;;;;5056734;28;20029;-73
2021/03/18 04:30:56;;;;;;;40.80;22.33;;;3.10;99.90;;;;;;5072009;28;20036;-73
2021/03/18 04:33:24;;;;;;;46.70;23.33;;;3.10;99.80;;;;;;5056426;28;20401;-72
2021/03/18 04:35:50;;;;;;;41.47;23.37;;;3.00;99.90;;;;;;5071892;28;20032;-68
2021/03/18 04:38:17;;;;;;;36.47;21.03;;;2.90;99.90;;;;;;5056780;28;20029;-72
2021/03/18 04:40:45;;;;;;;43.27;22.47;;;2.90;99.90;;;;;;5056454;28;20427;-73
2021/03/18 04:43:11;;;;;;;44.20;22.47;;;2.80;99.90;;;;;;5071346;28;20036;-74
2021/03/18 04:45:39;;;;;;;46.40;23.27;;;2.80;99.90;;;;;;5071688;28;20040;-71
2021/03/18 04:48:06;;;;;;;46.43;23.20;;;2.70;99.90;;;;;;5071399;28;20032;-73
2021/03/18 04:50:32;;;;;;;42.87;21.37;;;2.70;99.90;;;;;;5074798;28;20038;-73
2021/03/18 04:52:59;;;;;;;43.70;22.20;;;2.70;99.90;;;;;;5076201;28;20029;-70
2021/03/18 04:55:25;;;;;;;45.67;22.50;;;2.70;99.90;;;;;;5076146;28;20126;-70
2021/03/18 04:58:07;;;;;;;43.10;23.00;;;2.60;99.90;;;;;;5075908;28;20029;-70
2021/03/18 05:00:34;;;;;;;42.70;21.87;;;2.70;99.90;;;;;;5076172;28;20032;-71
2021/03/18 05:03:03;;;;;;;46.37;22.97;;;2.60;99.90;;;;;;5091647;28;20464;-72
2021/03/18 05:05:33;;;;;;;44.53;23.17;;;2.60;99.90;;;;;;5075937;28;20055;-72
2021/03/18 05:08:00;;;;;;;48.80;24.33;;;2.70;99.90;;;;;;5076236;28;20021;-70
2021/03/18 05:10:31;;;;;;;42.40;22.00;;;2.60;99.90;;;;;;5074577;28;20024;-71
2021/03/18 05:12:59;;;;;;;49.33;25.63;;;2.70;99.90;;;;;;5091433;28;20439;-73
2021/03/18 05:15:25;;;;;;;44.43;24.13;;;2.60;99.90;;;;;;5075807;28;20108;-71
2021/03/18 05:17:53;;;;;;;47.93;23.87;;;2.60;99.90;;;;;;5076036;28;20028;-72
2021/03/18 05:20:22;;;;;;;44.77;23.87;;;2.60;99.90;;;;;;5075766;28;20081;-69
2021/03/18 05:22:51;;;;;;;50.63;25.60;;;2.60;99.90;;;;;;5075591;28;20021;-71
2021/03/18 05:25:21;;;;;;;43.43;23.60;;;2.60;99.90;;;;;;5091229;28;20036;-73
2021/03/18 05:27:47;;;;;;;42.60;24.23;;;2.60;99.90;;;;;;5075601;28;20021;-73
2021/03/18 05:30:14;;;;;;;46.40;25.83;;;2.60;99.90;;;;;;5073994;28;20031;-72
2021/03/18 05:32:40;;;;;;;48.23;26.43;;;2.50;99.90;;;;;;5090712;28;20136;-72
2021/03/18 05:35:08;;;;;;;47.60;24.13;;;2.60;99.90;;;;;;5072792;28;20079;-69
2021/03/18 05:37:35;;;;;;;47.47;24.13;;;2.50;99.90;;;;;;5073983;28;20028;-72
2021/03/18 05:40:03;;;;;;;37.27;22.20;;;2.60;99.90;;;;;;5074104;28;20021;-71
2021/03/18 05:42:29;;;;;;;45.57;24.20;;;2.60;99.90;;;;;;5073901;28;20028;-73
2021/03/18 05:44:55;;;;;;;47.63;23.50;;;2.60;99.90;;;;;;5074997;28;20048;-71
2021/03/18 05:47:23;;;;;;;50.03;23.63;;;2.60;99.90;;;;;;5075090;28;20035;-71
2021/03/18 05:49:49;;;;;;;50.10;26.63;;;2.60;99.90;;;;;;5090794;28;20024;-74
2021/03/18 05:52:17;;;;;;;44.73;23.97;;;2.60;99.90;;;;;;5090654;28;20025;-73
2021/03/18 05:54:47;;;;;;;43.97;25.00;;;2.60;99.90;;;;;;5090700;28;20475;-72
2021/03/18 05:57:16;;;;;;;50.17;27.63;;;2.60;99.90;;;;;;5070555;28;20024;-72
2021/03/18 05:59:46;;;;;;;58.83;29.47;;;2.60;99.90;;;;;;5068513;28;20021;-75
2021/03/18 06:02:12;;;;;;;57.53;28.27;;;2.70;99.90;;;;;;5075025;28;20372;-74
2021/03/18 06:04:40;;;;;;;51.50;28.50;;;2.80;99.90;;;;;;5074908;28;20088;-74
2021/03/18 06:07:07;;;;;;;55.10;28.37;;;2.90;99.90;;;;;;5071521;28;20035;-73
2021/03/18 06:09:34;;;;;;;49.67;24.93;;;2.80;99.90;;;;;;5067516;28;20055;-70
2021/03/18 06:12:00;;;;;;;49.67;25.23;;;2.80;99.90;;;;;;5070186;28;20486;-74
2021/03/18 06:14:26;;;;;;;47.57;24.67;;;2.80;99.90;;;;;;5055658;28;20071;-69
2021/03/18 06:16:54;;;;;;;49.10;26.30;;;2.80;99.90;;;;;;5065126;28;20029;-73
2021/03/18 06:19:20;;;;;;;52.13;26.70;;;2.90;99.90;;;;;;5066313;28;20031;-76
2021/03/18 06:21:55;;;;;;;54.10;28.53;;;2.90;99.90;;;;;;5072958;28;20115;-73
2021/03/18 06:24:23;;;;;;;53.20;26.60;;;3.00;99.90;;;;;;5057417;28;20029;-74
2021/03/18 06:26:49;;;;;;;50.07;27.23;;;3.00;99.90;;;;;;5053169;28;20040;-76
2021/03/18 06:29:33;;;;;;;54.30;27.33;;;3.10;99.90;;;;;;5054460;28;20029;-75
2021/03/18 06:32:14;;;;;;;49.50;27.77;;;3.10;99.80;;;;;;5054015;28;20025;-73
2021/03/18 06:34:48;;;;;;;49.30;27.37;;;3.20;99.80;;;;;;5054142;28;20033;-71
2021/03/18 06:37:34;;;;;;;48.47;26.30;;;3.10;99.20;;;;;;5054050;28;20029;-74
2021/03/18 06:40:05;;;;;;;44.20;23.70;;;3.20;99.60;;;;;;5053711;28;20100;-71
2021/03/18 06:42:35;;;;;;;43.78;24.65;;;3.20;99.30;;;;;;5052785;28;20424;-72
2021/03/18 06:45:11;;;;;;;56.97;30.70;;;3.30;99.50;;;;;;5053822;28;20072;-74
2021/03/18 06:47:45;;;;;;;46.07;24.93;;;3.30;99.70;;;;;;5052280;28;20071;-71
2021/03/18 06:50:16;;;;;;;46.20;24.43;;;3.40;99.40;;;;;;5054095;28;20079;-73
2021/03/18 06:52:51;;;;;;;46.78;24.98;;;3.40;99.30;;;;;;5052571;28;20052;-72
2021/03/18 06:55:26;;;;;;;48.67;26.57;;;3.40;99.20;;;;;;5054181;28;20072;-69
2021/03/18 06:58:12;;;;;;;48.83;25.67;;;3.40;99.60;;;;;;5055269;28;20044;-71
2021/03/18 07:00:39;;;;;;;48.90;27.97;;;3.50;99.10;;;;;;5041636;28;20393;-72
2021/03/18 07:03:08;;;;;;;54.23;28.33;;;3.50;99.80;;;;;;5052299;28;20028;-72
2021/03/18 07:05:38;;;;;;;59.83;28.97;;;3.50;99.40;;;;;;5055090;28;20497;-70
2021/03/18 07:08:06;;;;;;;46.40;25.10;;;3.50;99.10;;;;;;5069992;28;20025;-69
2021/03/18 07:10:35;;;;;;;53.47;28.47;;;3.50;99.10;;;;;;5053637;28;20029;-72
2021/03/18 07:13:31;;;;;;;60.57;30.97;;;3.50;99.30;;;;;;5053842;28;20354;-76
2021/03/18 07:15:59;;;;;;;62.23;30.50;;;3.70;99.40;;;;;;5052192;28;20384;-71
2021/03/18 07:18:27;;;;;;;49.97;26.33;;;3.70;99.00;;;;;;5053422;28;20033;-74
2021/03/18 07:21:00;;;;;;;49.13;27.23;;;3.80;98.30;;;;;;5053315;28;20036;-70
2021/03/18 07:23:41;;;;;;;53.70;27.77;;;3.80;98.70;;;;;;5053257;28;20021;-68
2021/03/18 07:26:13;;;;;;;39.75;21.27;;;3.90;99.20;;;;;;5057908;28;20045;-72
2021/03/18 07:28:40;;;;;;;48.73;25.33;;;3.90;98.70;;;;;;5067162;28;20028;-69
2021/03/18 07:31:06;;;;;;;55.53;29.23;;;4.00;98.80;;;;;;5087427;28;20107;-72
2021/03/18 07:33:33;;;;;;;40.65;22.33;;;4.20;98.50;;;;;;5071170;28;20544;-70
2021/03/18 07:36:01;;;;;;;47.10;25.97;;;4.30;98.00;;;;;;5071827;28;20032;-76
2021/03/18 07:38:29;;;;;;;40.63;22.73;;;4.50;98.20;;;;;;5071751;28;20473;-70
2021/03/18 07:40:56;;;;;;;43.05;24.88;;;4.50;97.20;;;;;;5065950;28;20041;-74
2021/03/18 07:43:23;;;;;;;40.63;24.47;;;4.60;97.70;;;;;;5064055;28;20056;-71
2021/03/18 07:45:50;;;;;;;33.25;19.45;;;4.60;96.80;;;;;;5071787;28;20117;-67
2021/03/18 07:48:20;;;;;;;47.97;26.48;;;4.70;95.90;;;;;;5061676;28;20492;-71
2021/03/18 07:50:48;;;;;;;32.42;20.48;;;5.00;96.90;;;;;;5058735;28;20032;-75
2021/03/18 07:53:17;;;;;;;35.13;20.88;;;5.00;96.10;;;;;;5072395;28;20035;-68
2021/03/18 07:55:44;;;;;;;34.42;19.85;;;5.00;95.80;;;;;;5071635;28;20034;-72
2021/03/18 07:58:10;;;;;;;30.80;18.02;;;5.00;94.90;;;;;;5070474;28;20446;-77
2021/03/18 08:00:43;;;;;;;29.23;17.88;;;5.10;95.50;;;;;;5067603;28;20102;-70
2021/03/18 08:03:21;;;;;;;32.03;20.10;;;4.80;94.70;;;;;;5056216;28;20021;-70
2021/03/18 08:05:47;;;;;;;36.65;22.25;;;4.80;95.00;;;;;;5072412;28;20120;-73
2021/03/18 08:08:32;;;;;;;39.70;22.70;;;4.70;96.10;;;;;;5071079;28;20405;-74
2021/03/18 08:11:05;;;;;;;36.95;21.73;;;4.80;95.80;;;;;;5071510;28;20381;-71
2021/03/18 08:13:36;;;;;;;38.58;22.63;;;4.70;95.10;;;;;;5072515;28;20078;-74
2021/03/18 08:16:05;;;;;;;38.53;22.83;;;4.70;95.40;;;;;;5072331;28;20021;-72
2021/03/18 08:18:34;;;;;;;40.33;22.30;;;4.60;96.00;;;;;;5087961;28;20037;-69
2021/03/18 08:21:02;;;;;;;39.72;21.85;;;4.70;95.60;;;;;;5088141;28;20032;-77
2021/03/18 08:23:28;;;;;;;37.55;21.45;;;4.70;95.30;;;;;;5071314;28;20032;-71
2021/03/18 08:25:56;;;;;;;41.50;23.77;;;4.90;95.20;;;;;;5071390;28;20089;-74
2021/03/18 08:28:45;;;;;;;38.40;23.65;;;5.00;95.00;;;;;;5085856;28;20107;-72
2021/03/18 08:31:18;;;;;;;45.03;25.92;;;5.40;94.70;;;;;;5070661;28;20021;-72
2021/03/18 08:33:53;;;;;;;48.10;28.70;;;5.40;94.10;;;;;;5071025;28;20048;-70
2021/03/18 08:36:37;;;;;;;44.30;26.42;;;5.40;94.40;;;;;;5071947;28;20388;-72
2021/03/18 08:39:33;;;;;;;40.45;23.17;;;5.50;93.40;;;;;;5071151;28;20111;-74
2021/03/18 08:41:59;;;;;;;40.85;24.30;;;5.60;92.80;;;;;;5072484;28;20028;-69
2021/03/18 08:44:29;;;;;;;34.00;21.10;;;5.50;93.30;;;;;;5071983;28;20522;-73
2021/03/18 08:47:04;;;;;;;39.70;23.73;;;5.40;93.50;;;;;;5071030;28;20021;-70
2021/03/18 08:49:32;;;;;;;37.08;21.25;;;5.30;93.70;;;;;;5072518;28;20028;-68
2021/03/18 08:52:03;;;;;;;46.83;25.73;;;5.00;93.60;;;;;;5072355;28;20025;-71
2021/03/18 08:54:43;;;;;;;44.33;25.55;;;;;;;;;;5071008;28;20082;-69
2021/03/18 08:57:22;;;;;;;45.67;26.85;;;4.90;93.80;;;;;;5064983;28;20466;-67
2021/03/18 08:59:58;;;;;;;43.28;24.85;;;4.70;94.90;;;;;;5063743;28;20062;-69
2021/03/18 09:02:34;;;;;;;38.42;23.75;;;4.70;95.70;;;;;;5070026;28;20041;-69
2021/03/18 09:05:05;;;;;;;32.55;20.65;;;4.70;95.30;;;;;;5070400;28;20407;-69
2021/03/18 09:07:32;;;;;;;33.90;21.10;;;4.80;94.80;;;;;;5072237;28;20423;-71
2021/03/18 09:10:14;;;;;;;40.95;23.65;;;4.80;94.70;;;;;;5072508;28;20039;-70
2021/03/18 09:12:44;;;;;;;32.75;20.58;;;4.80;94.30;;;;;;5075645;28;20088;-72
2021/03/18 09:15:16;;;;;;;31.55;19.67;;;4.80;95.00;;;;;;5075539;28;20139;-70
2021/03/18 09:17:44;;;;;;;46.72;25.55;;;4.80;95.10;;;;;;5075084;28;20059;-72
2021/03/18 09:20:12;;;;;;;48.70;24.85;;;4.80;95.60;;;;;;5069196;28;20087;-73
2021/03/18 09:22:38;;;;;;;49.38;27.73;;;4.80;95.50;;;;;;5071721;28;20453;-75
2021/03/18 09:25:04;;;;;;;43.83;25.25;;;4.80;95.50;;;;;;5066333;28;20044;-73
2021/03/18 09:27:36;;;;;;;47.50;26.30;;;4.80;95.80;;;;;;5077751;28;20033;-72
2021/03/18 09:30:15;;;;;;;67.55;34.33;;;4.80;95.50;;;;;;5060387;28;20036;-73
2021/03/18 09:32:41;;;;;;;52.53;29.67;;;4.90;96.50;;;;;;5074779;28;20055;-75
2021/03/18 09:35:11;;;;;;;43.50;25.20;;;5.00;95.80;;;;;;5075085;28;20119;-71
2021/03/18 09:37:37;;;;;;;47.83;24.35;;;5.00;95.30;;;;;;5073985;28;20025;-73
2021/03/18 09:40:09;;;;;;;42.47;25.98;;;5.00;94.20;;;;;;5073955;28;20058;-73
2021/03/18 09:42:36;;;;;;;42.45;25.02;;;5.00;94.80;;;;;;5074011;28;20021;-74
2021/03/18 09:45:04;;;;;;;38.88;21.88;;;5.20;95.00;;;;;;5075171;28;20067;-73
2021/03/18 09:47:30;;;;;;;35.40;20.27;;;5.40;94.00;;;;;;5073603;28;20028;-73
2021/03/18 09:49:55;;;;;;;38.95;23.95;;;5.40;94.30;;;;;;5066532;28;20043;-72
2021/03/18 09:52:25;;;;;;;35.55;20.48;;;5.50;94.60;;;;;;5072832;28;20028;-74
2021/03/18 09:54:53;;;;;;;30.75;20.60;;;5.50;94.20;;;;;;5073645;28;20036;-74
2021/03/18 09:57:20;;;;;;;38.00;23.13;;;5.40;94.40;;;;;;5072608;28;20081;-71
2021/03/18 09:59:50;;;;;;;33.38;21.17;;;5.30;94.30;;;;;;5062487;28;20036;-74
2021/03/18 10:02:18;;;;;;;40.97;25.30;;;5.20;94.20;;;;;;5053333;28;20029;-73
2021/03/18 10:04:45;;;;;;;29.90;20.13;;;5.20;95.30;;;;;;5054670;28;20075;-75
2021/03/18 10:07:13;;;;;;;33.85;20.25;;;5.30;94.10;;;;;;5053299;28;20454;-75
2021/03/18 10:09:42;;;;;;;33.90;20.63;;;5.20;94.20;;;;;;5055834;28;20393;-77
2021/03/18 10:12:21;;;;;;;36.38;21.40;;;5.20;94.40;;;;;;5073192;28;20033;-72
2021/03/18 10:14:57;;;;;;;34.92;22.48;;;5.40;94.00;;;;;;5074573;28;20040;-70
2021/03/18 10:17:35;;;;;;;42.28;25.05;;;5.50;94.40;;;;;;5070922;28;20101;-73
2021/03/18 10:20:44;;;;;;;36.47;23.67;;;5.60;94.10;;;;;;5074422;28;20078;-74
2021/03/18 10:23:10;;;;;;;29.17;18.17;;;5.70;94.30;;;;;;5012023;28;20141;-73
2021/03/18 10:25:38;;;;;;;30.23;18.95;;;5.50;92.60;;;;;;5012116;28;20029;-73
2021/03/18 10:28:09;;;;;;;34.65;21.52;;;5.40;93.30;;;;;;5011929;28;20033;-72
2021/03/18 10:30:56;;;;;;;35.90;21.55;;;5.40;93.90;;;;;;5012105;28;20037;-73
2021/03/18 10:33:26;;;;;;;38.33;22.25;;;5.30;93.60;;;;;;5011187;28;20499;-71
2021/03/18 10:35:52;;;;;;;57.67;34.92;;;5.20;94.20;;;;;;5010845;28;21377;-73
2021/03/18 10:38:34;;;;;;;55.90;30.73;;;5.20;93.90;;;;;;5010946;28;20044;-73
2021/03/18 10:41:10;;;;;;;88.60;41.70;;;5.10;93.80;;;;;;5011407;28;20041;-76
2021/03/18 10:43:42;;;;;;;99.57;48.60;;;5.00;93.90;;;;;;5011424;28;20065;-70
2021/03/18 10:46:09;;;;;;;;;;;4.90;94.00;;;;;;5010828;28;20042;-71
2021/03/18 10:48:37;;;;;;;44.38;24.92;;;4.80;94.30;;;;;;4994936;28;20342;-74
2021/03/18 10:51:05;;;;;;;41.28;23.35;;;4.80;95.40;;;;;;4995315;28;20080;-74
2021/03/18 10:53:37;;;;;;;33.63;19.63;;;4.80;94.90;;;;;;4994986;28;20038;-74
2021/03/18 10:56:04;;;;;;;;;;;4.70;94.70;;;;;;5011940;28;20026;-72
2021/03/18 10:58:30;;;;;;;35.58;21.05;;;4.80;95.30;;;;;;5014882;28;20373;-73
2021/03/18 11:01:07;;;;;;;48.60;26.95;;;4.80;95.00;;;;;;5062003;28;20029;-73
2021/03/18 11:03:41;;;;;;;50.92;30.48;;;4.80;94.90;;;;;;5052179;28;20040;-72
2021/03/18 11:06:17;;;;;;;51.75;30.52;;;4.80;94.60;;;;;;5053470;28;20040;-74
2021/03/18 11:08:49;;;;;;;56.55;33.75;;;5.00;94.20;;;;;;5053335;28;20373;-74
2021/03/18 11:11:23;;;;;;;87.05;51.50;;;5.00;94.30;;;;;;5060772;28;20095;-73
2021/03/18 11:13:50;;;;;;;42.35;25.80;;;5.10;94.20;;;;;;5073454;28;20032;-72
2021/03/18 11:16:21;;;;;;;35.20;21.98;;;5.30;94.10;;;;;;5072046;28;20385;-74
2021/03/18 11:18:49;;;;;;;32.50;19.67;;;5.40;93.00;;;;;;5073353;28;20029;-74
2021/03/18 11:21:19;;;;;;;33.58;21.42;;;5.40;93.50;;;;;;5073146;28;20392;-74
2021/03/18 11:23:46;;;;;;;37.30;22.65;;;5.60;93.20;;;;;;5071363;28;20036;-74
2021/03/18 11:26:12;;;;;;;33.70;21.30;;;5.80;93.00;;;;;;5073219;28;20050;-72
2021/03/18 11:28:48;;;;;;;35.17;21.20;;;5.90;92.70;;;;;;5071660;28;20431;-71
2021/03/18 11:31:16;;;;;;;31.08;20.20;;;5.90;93.40;;;;;;5066651;28;20025;-75
2021/03/18 11:33:42;;;;;;;34.47;21.02;;;;;;;;;;5066538;28;20094;-74
2021/03/18 11:36:08;;;;;;;66.90;42.65;;;5.60;92.70;;;;;;5072478;28;20028;-72
2021/03/18 11:38:34;;;;;;;72.95;46.58;;;5.30;93.50;;;;;;5065341;28;20036;-73
2021/03/18 11:41:01;;;;;;;53.92;35.10;;;5.20;93.80;;;;;;5073050;28;20039;-72
2021/03/18 11:43:27;;;;;;;64.68;38.47;;;5.10;93.70;;;;;;5073263;28;20115;-69
2021/03/18 11:45:54;;;;;;;51.08;33.17;;;5.10;94.10;;;;;;5072838;28;20035;-72
2021/03/18 11:48:21;;;;;;;62.92;42.03;;;5.10;93.90;;;;;;5071129;28;20086;-71
2021/03/18 11:50:47;;;;;;;43.60;29.40;;;5.10;93.10;;;;;;5062526;28;20480;-71
2021/03/18 11:53:13;;;;;;;27.67;18.92;;;5.00;93.40;;;;;;5052958;28;20029;-70
2021/03/18 11:55:40;;;;;;;37.63;25.10;;;5.00;93.00;;;;;;5050796;28;20507;-71
2021/03/18 11:58:36;;;;;;;29.83;18.45;;;5.10;93.40;;;;;;5052507;28;20032;-71
2021/03/18 12:01:02;;;;;;;24.80;16.35;;;5.10;93.30;;;;;;5066844;28;20028;-71
2021/03/18 12:03:28;;;;;;;31.50;20.25;;;5.00;93.30;;;;;;5055615;28;20090;-71
2021/03/18 12:05:54;;;;;;;35.80;21.00;;;5.10;93.50;;;;;;5070951;28;20028;-72
2021/03/18 12:08:20;;;;;;;37.67;22.05;;;5.10;93.10;;;;;;5069463;28;20465;-73
2021/03/18 12:10:46;;;;;;;34.33;21.48;;;5.10;93.00;;;;;;5070399;28;20613;-74
2021/03/18 12:13:12;;;;;;;31.90;19.70;;;5.20;93.00;;;;;;5069000;28;20032;-70
2021/03/18 12:15:38;;;;;;;35.67;21.05;;;5.10;92.90;;;;;;5070526;28;20032;-75
2021/03/18 12:18:04;;;;;;;41.88;24.15;;;5.20;92.30;;;;;;5071005;28;20033;-71
2021/03/18 12:20:31;;;;;;;91.63;45.58;;;5.30;92.60;;;;;;5082350;28;20029;-72
2021/03/18 12:22:58;;;;;;;42.85;24.05;;;5.30;92.10;;;;;;5082909;28;20112;-73
2021/03/18 12:25:25;;;;;;;35.10;21.05;;;5.40;92.30;;;;;;5067117;28;20025;-71
2021/03/18 12:27:52;;;;;;;36.15;22.33;;;5.50;92.10;;;;;;5052368;28;20489;-72
2021/03/18 12:30:20;;;;;;;61.55;29.27;;;5.60;92.00;;;;;;5060482;28;20029;-70
2021/03/18 12:32:46;;;;;;;34.20;19.67;;;5.70;91.90;;;;;;5066210;28;20052;-73
2021/03/18 12:35:14;;;;;;;32.65;20.10;;;5.80;92.00;;;;;;5063757;28;20032;-72
2021/03/18 12:37:40;;;;;;;59.65;31.42;;;5.90;91.40;;;;;;5069228;28;20464;-73
2021/03/18 12:40:07;;;;;;;68.45;40.92;;;6.00;91.60;;;;;;5070926;28;20040;-71
2021/03/18 12:42:33;;;;;;;43.35;28.40;;;6.00;90.80;;;;;;5070933;28;20032;-70
2021/03/18 12:44:59;;;;;;;43.58;25.65;;;6.10;91.50;;;;;;5069277;28;20029;-72
2021/03/18 12:47:26;;;;;;;46.22;33.97;;;6.00;91.70;;;;;;5054719;28;20469;-71
2021/03/18 12:49:52;;;;;;;50.20;34.03;;;6.10;89.50;;;;;;5071179;28;20036;-72
2021/03/18 12:52:18;;;;;;;82.70;48.92;;;6.10;89.10;;;;;;5055854;28;20108;-72